Four Corners Regional Airport Farmington US
ICAO: KFMN
IATA: FMN
Category: Medium
Scheduled Services: No

Elevation: 5506 ft
TransAlt. 18000 ft.

Airport Communications:
ATIS:127.15
DENVER CNTR:118.575
CTAF:118.9
GND:121.7
ALBUQUERQUE RDO:122.4
FARMINGTON TWR:118.9
UNICOM:122.95

KFMN Zoom In..

If you have problems with the map follow the link
https://www.worldairports.se/pages/airport.php?
ICAO=KFMN

Runways:

(A) RW 05 length 6500 ft width 150 ft
---- / hdg 53

(B) RW 07 length 6704 ft width 100 ft
---- / hdg 76

(C) RW 23 length 6500 ft width 150 ft
---- / hdg 233

(D) RW 25 length 6704 ft width 100 ft
ILS 111.90 / hdg 256

Location; KFMN
Day. 22 / Time. 15.53 Zulu
* Altimeter: 29.70
* Temperature: 00° c. 32°f.
* Wind from: 070° Speed 05 kn.
Dewpoint: -01° c.
Visibility: 10 Statute Miles.
Clouds: Few 1400 ft.
Clouds: Broken 4100 ft.
Clouds: Overcast 4900 ft.

KFMN 221553Z 07005KT 10SM FEW014 BKN041 OVC049 00/M01 A2970 RMK AO2 SNE44 SLP068 P0002 T00001011


Wind From 070°
Speed 05 kn.

 
 
jpsmedia.com for Web Design worldairports.se 2019   terms of use